sensor_id;sensor_type;location;lat;lon;timestamp;P1;durP1;ratioP1;P2;durP2;ratioP2
63534;SDS011;55128;50.230;18.944;2022-10-13T00:02:46;66.18;;;41.33;;
63534;SDS011;55128;50.230;18.944;2022-10-13T00:07:46;64.28;;;37.63;;
63534;SDS011;55128;50.230;18.944;2022-10-13T00:12:47;65.10;;;42.20;;
63534;SDS011;55128;50.230;18.944;2022-10-13T00:17:48;62.22;;;39.42;;
63534;SDS011;55128;50.230;18.944;2022-10-13T00:22:48;66.63;;;41.63;;
63534;SDS011;55128;50.230;18.944;2022-10-13T00:27:49;67.70;;;39.10;;
63534;SDS011;55128;50.230;18.944;2022-10-13T00:32:50;64.00;;;37.50;;
63534;SDS011;55128;50.230;18.944;2022-10-13T00:37:50;61.35;;;38.92;;
63534;SDS011;55128;50.230;18.944;2022-10-13T00:42:52;57.92;;;36.38;;
63534;SDS011;55128;50.230;18.944;2022-10-13T00:47:56;57.85;;;34.28;;
63534;SDS011;55128;50.230;18.944;2022-10-13T00:52:59;52.83;;;30.55;;
63534;SDS011;55128;50.230;18.944;2022-10-13T00:58:02;53.35;;;32.70;;
63534;SDS011;55128;50.230;18.944;2022-10-13T01:03:06;60.25;;;37.38;;
63534;SDS011;55128;50.230;18.944;2022-10-13T01:08:08;59.53;;;38.08;;
63534;SDS011;55128;50.230;18.944;2022-10-13T01:13:16;69.43;;;41.22;;
63534;SDS011;55128;50.230;18.944;2022-10-13T01:19:09;88.07;;;50.00;;
63534;SDS011;55128;50.230;18.944;2022-10-13T01:45:30;67.47;;;35.03;;
63534;SDS011;55128;50.230;18.944;2022-10-13T01:50:36;72.95;;;38.50;;
63534;SDS011;55128;50.230;18.944;2022-10-13T01:55:48;77.18;;;41.80;;
63534;SDS011;55128;50.230;18.944;2022-10-13T02:06:02;85.13;;;43.53;;
63534;SDS011;55128;50.230;18.944;2022-10-13T02:11:13;74.82;;;42.20;;
63534;SDS011;55128;50.230;18.944;2022-10-13T02:16:16;72.67;;;39.97;;
63534;SDS011;55128;50.230;18.944;2022-10-13T02:21:19;75.80;;;38.53;;
63534;SDS011;55128;50.230;18.944;2022-10-13T02:26:20;63.65;;;36.78;;
63534;SDS011;55128;50.230;18.944;2022-10-13T02:31:21;66.68;;;37.58;;
63534;SDS011;55128;50.230;18.944;2022-10-13T02:36:21;63.33;;;35.88;;
63534;SDS011;55128;50.230;18.944;2022-10-13T02:41:22;64.57;;;38.45;;
63534;SDS011;55128;50.230;18.944;2022-10-13T02:46:23;74.35;;;39.42;;
63534;SDS011;55128;50.230;18.944;2022-10-13T02:51:23;66.82;;;36.67;;
63534;SDS011;55128;50.230;18.944;2022-10-13T02:56:24;61.17;;;35.20;;
63534;SDS011;55128;50.230;18.944;2022-10-13T03:01:24;57.47;;;36.33;;
63534;SDS011;55128;50.230;18.944;2022-10-13T03:06:25;56.33;;;33.40;;
63534;SDS011;55128;50.230;18.944;2022-10-13T03:11:26;58.25;;;34.10;;
63534;SDS011;55128;50.230;18.944;2022-10-13T03:16:26;60.15;;;36.60;;
63534;SDS011;55128;50.230;18.944;2022-10-13T03:21:27;55.25;;;33.22;;
63534;SDS011;55128;50.230;18.944;2022-10-13T03:26:27;56.97;;;33.50;;
63534;SDS011;55128;50.230;18.944;2022-10-13T03:31:28;51.20;;;30.48;;
63534;SDS011;55128;50.230;18.944;2022-10-13T03:36:29;52.03;;;31.55;;
63534;SDS011;55128;50.230;18.944;2022-10-13T03:41:30;58.70;;;34.45;;
63534;SDS011;55128;50.230;18.944;2022-10-13T03:46:30;55.30;;;32.53;;
63534;SDS011;55128;50.230;18.944;2022-10-13T03:51:31;47.85;;;29.33;;
63534;SDS011;55128;50.230;18.944;2022-10-13T03:56:31;50.67;;;30.30;;
63534;SDS011;55128;50.230;18.944;2022-10-13T04:01:32;44.75;;;28.02;;
63534;SDS011;55128;50.230;18.944;2022-10-13T04:06:33;45.88;;;29.30;;
63534;SDS011;55128;50.230;18.944;2022-10-13T04:11:33;44.65;;;27.38;;
63534;SDS011;55128;50.230;18.944;2022-10-13T04:16:34;51.88;;;29.63;;
63534;SDS011;55128;50.230;18.944;2022-10-13T04:21:35;45.55;;;27.88;;
63534;SDS011;55128;50.230;18.944;2022-10-13T04:26:35;48.38;;;28.58;;
63534;SDS011;55128;50.230;18.944;2022-10-13T04:31:36;44.05;;;24.42;;
63534;SDS011;55128;50.230;18.944;2022-10-13T04:36:38;39.72;;;26.67;;
63534;SDS011;55128;50.230;18.944;2022-10-13T04:41:39;39.22;;;26.85;;
63534;SDS011;55128;50.230;18.944;2022-10-13T04:46:39;52.38;;;30.55;;
63534;SDS011;55128;50.230;18.944;2022-10-13T04:51:40;47.30;;;28.75;;
63534;SDS011;55128;50.230;18.944;2022-10-13T04:56:42;45.38;;;28.08;;
63534;SDS011;55128;50.230;18.944;2022-10-13T05:01:44;54.28;;;32.88;;
63534;SDS011;55128;50.230;18.944;2022-10-13T05:06:45;46.72;;;30.35;;
63534;SDS011;55128;50.230;18.944;2022-10-13T05:11:45;58.78;;;34.78;;
63534;SDS011;55128;50.230;18.944;2022-10-13T05:16:46;53.72;;;33.65;;
63534;SDS011;55128;50.230;18.944;2022-10-13T05:21:47;52.72;;;34.03;;
63534;SDS011;55128;50.230;18.944;2022-10-13T05:26:47;50.88;;;33.63;;
63534;SDS011;55128;50.230;18.944;2022-10-13T05:31:48;54.28;;;32.70;;
63534;SDS011;55128;50.230;18.944;2022-10-13T05:36:48;56.42;;;35.15;;
63534;SDS011;55128;50.230;18.944;2022-10-13T05:41:49;60.22;;;35.75;;
63534;SDS011;55128;50.230;18.944;2022-10-13T05:46:50;52.30;;;34.30;;
63534;SDS011;55128;50.230;18.944;2022-10-13T05:51:52;53.38;;;33.80;;
63534;SDS011;55128;50.230;18.944;2022-10-13T05:56:56;56.88;;;34.47;;
63534;SDS011;55128;50.230;18.944;2022-10-13T06:02:02;112.60;;;62.45;;
63534;SDS011;55128;50.230;18.944;2022-10-13T06:07:04;118.93;;;65.53;;
63534;SDS011;55128;50.230;18.944;2022-10-13T06:12:06;115.60;;;62.83;;
63534;SDS011;55128;50.230;18.944;2022-10-13T06:17:07;88.82;;;54.40;;
63534;SDS011;55128;50.230;18.944;2022-10-13T06:22:08;84.03;;;53.13;;
63534;SDS011;55128;50.230;18.944;2022-10-13T06:27:09;82.10;;;52.67;;
63534;SDS011;55128;50.230;18.944;2022-10-13T06:32:10;79.47;;;54.15;;
63534;SDS011;55128;50.230;18.944;2022-10-13T06:37:10;75.28;;;52.85;;
63534;SDS011;55128;50.230;18.944;2022-10-13T06:42:11;73.13;;;49.67;;
63534;SDS011;55128;50.230;18.944;2022-10-13T06:47:11;63.47;;;45.10;;
63534;SDS011;55128;50.230;18.944;2022-10-13T06:52:12;55.03;;;41.45;;
63534;SDS011;55128;50.230;18.944;2022-10-13T06:57:13;55.28;;;41.95;;
63534;SDS011;55128;50.230;18.944;2022-10-13T07:02:13;39.92;;;32.85;;
63534;SDS011;55128;50.230;18.944;2022-10-13T07:07:14;28.95;;;23.13;;
63534;SDS011;55128;50.230;18.944;2022-10-13T07:12:15;24.17;;;19.45;;
63534;SDS011;55128;50.230;18.944;2022-10-13T07:17:16;20.67;;;18.30;;
63534;SDS011;55128;50.230;18.944;2022-10-13T07:22:16;24.38;;;17.60;;
63534;SDS011;55128;50.230;18.944;2022-10-13T07:27:17;20.20;;;16.83;;
63534;SDS011;55128;50.230;18.944;2022-10-13T07:32:17;21.60;;;17.27;;
63534;SDS011;55128;50.230;18.944;2022-10-13T07:37:18;20.85;;;17.38;;
63534;SDS011;55128;50.230;18.944;2022-10-13T07:42:19;24.10;;;17.42;;
63534;SDS011;55128;50.230;18.944;2022-10-13T07:47:19;21.92;;;17.50;;
63534;SDS011;55128;50.230;18.944;2022-10-13T07:52:20;21.60;;;16.73;;
63534;SDS011;55128;50.230;18.944;2022-10-13T07:57:21;17.90;;;14.85;;
63534;SDS011;55128;50.230;18.944;2022-10-13T08:02:24;19.20;;;14.75;;
63534;SDS011;55128;50.230;18.944;2022-10-13T08:07:25;24.33;;;16.50;;
63534;SDS011;55128;50.230;18.944;2022-10-13T08:12:26;21.85;;;17.15;;
63534;SDS011;55128;50.230;18.944;2022-10-13T08:17:26;22.33;;;17.05;;
63534;SDS011;55128;50.230;18.944;2022-10-13T08:22:27;26.50;;;17.40;;
63534;SDS011;55128;50.230;18.944;2022-10-13T08:27:27;22.08;;;16.05;;
63534;SDS011;55128;50.230;18.944;2022-10-13T08:32:28;21.08;;;16.50;;
63534;SDS011;55128;50.230;18.944;2022-10-13T08:37:29;21.52;;;16.45;;
63534;SDS011;55128;50.230;18.944;2022-10-13T08:42:30;19.95;;;16.33;;
63534;SDS011;55128;50.230;18.944;2022-10-13T08:52:56;17.80;;;14.55;;
63534;SDS011;55128;50.230;18.944;2022-10-13T09:03:28;21.48;;;16.00;;
63534;SDS011;55128;50.230;18.944;2022-10-13T09:08:32;18.45;;;14.77;;
63534;SDS011;55128;50.230;18.944;2022-10-13T09:13:47;17.17;;;14.32;;
63534;SDS011;55128;50.230;18.944;2022-10-13T09:18:52;14.73;;;12.75;;
63534;SDS011;55128;50.230;18.944;2022-10-13T09:23:53;15.27;;;12.55;;
63534;SDS011;55128;50.230;18.944;2022-10-13T09:29:16;15.48;;;11.98;;
63534;SDS011;55128;50.230;18.944;2022-10-13T09:34:23;13.18;;;11.80;;
63534;SDS011;55128;50.230;18.944;2022-10-13T09:39:25;15.13;;;12.13;;
63534;SDS011;55128;50.230;18.944;2022-10-13T09:44:27;14.75;;;11.52;;
63534;SDS011;55128;50.230;18.944;2022-10-13T09:49:41;15.18;;;11.35;;
63534;SDS011;55128;50.230;18.944;2022-10-13T09:59:53;14.55;;;10.85;;
63534;SDS011;55128;50.230;18.944;2022-10-13T10:05:16;12.48;;;9.55;;
63534;SDS011;55128;50.230;18.944;2022-10-13T10:10:27;12.55;;;10.20;;
63534;SDS011;55128;50.230;18.944;2022-10-13T10:26:21;14.50;;;8.90;;
63534;SDS011;55128;50.230;18.944;2022-10-13T10:31:36;12.25;;;8.45;;
63534;SDS011;55128;50.230;18.944;2022-10-13T10:37:05;11.00;;;7.05;;
63534;SDS011;55128;50.230;18.944;2022-10-13T10:47:43;10.35;;;6.40;;
63534;SDS011;55128;50.230;18.944;2022-10-13T10:58:19;8.55;;;6.55;;
63534;SDS011;55128;50.230;18.944;2022-10-13T11:03:57;9.95;;;5.97;;
63534;SDS011;55128;50.230;18.944;2022-10-13T11:14:40;9.07;;;6.50;;
63534;SDS011;55128;50.230;18.944;2022-10-13T11:19:41;11.77;;;6.93;;
63534;SDS011;55128;50.230;18.944;2022-10-13T11:24:46;12.13;;;7.00;;
63534;SDS011;55128;50.230;18.944;2022-10-13T11:29:56;11.02;;;8.18;;
63534;SDS011;55128;50.230;18.944;2022-10-13T11:56:54;16.63;;;11.63;;
63534;SDS011;55128;50.230;18.944;2022-10-13T12:01:42;16.60;;;12.20;;
63534;SDS011;55128;50.230;18.944;2022-10-13T12:06:43;16.27;;;12.27;;
63534;SDS011;55128;50.230;18.944;2022-10-13T12:11:56;13.55;;;10.70;;
63534;SDS011;55128;50.230;18.944;2022-10-13T12:17:02;14.23;;;11.25;;
63534;SDS011;55128;50.230;18.944;2022-10-13T12:22:10;13.05;;;9.85;;
63534;SDS011;55128;50.230;18.944;2022-10-13T12:27:19;16.27;;;11.88;;
63534;SDS011;55128;50.230;18.944;2022-10-13T12:32:23;17.27;;;11.15;;
63534;SDS011;55128;50.230;18.944;2022-10-13T12:37:32;16.98;;;11.85;;
63534;SDS011;55128;50.230;18.944;2022-10-13T12:42:36;14.30;;;11.10;;
63534;SDS011;55128;50.230;18.944;2022-10-13T12:52:44;16.13;;;11.70;;
63534;SDS011;55128;50.230;18.944;2022-10-13T12:57:46;15.02;;;10.88;;
63534;SDS011;55128;50.230;18.944;2022-10-13T13:02:55;15.45;;;11.27;;
63534;SDS011;55128;50.230;18.944;2022-10-13T13:08:01;14.38;;;11.30;;
63534;SDS011;55128;50.230;18.944;2022-10-13T13:13:22;15.77;;;11.82;;
63534;SDS011;55128;50.230;18.944;2022-10-13T13:18:36;15.73;;;11.82;;
63534;SDS011;55128;50.230;18.944;2022-10-13T13:23:38;19.95;;;13.30;;
63534;SDS011;55128;50.230;18.944;2022-10-13T13:28:44;16.73;;;12.90;;
63534;SDS011;55128;50.230;18.944;2022-10-13T13:33:46;17.13;;;12.98;;
63534;SDS011;55128;50.230;18.944;2022-10-13T13:38:47;19.52;;;13.13;;
63534;SDS011;55128;50.230;18.944;2022-10-13T13:43:48;17.38;;;12.93;;
63534;SDS011;55128;50.230;18.944;2022-10-13T13:48:49;20.35;;;13.55;;
63534;SDS011;55128;50.230;18.944;2022-10-13T13:53:51;17.98;;;12.63;;
63534;SDS011;55128;50.230;18.944;2022-10-13T13:58:51;18.15;;;13.15;;
63534;SDS011;55128;50.230;18.944;2022-10-13T14:03:52;16.70;;;12.70;;
63534;SDS011;55128;50.230;18.944;2022-10-13T14:08:53;18.35;;;14.52;;
63534;SDS011;55128;50.230;18.944;2022-10-13T14:13:53;16.50;;;13.18;;
63534;SDS011;55128;50.230;18.944;2022-10-13T14:18:57;16.27;;;13.23;;
63534;SDS011;55128;50.230;18.944;2022-10-13T14:23:57;19.38;;;14.13;;
63534;SDS011;55128;50.230;18.944;2022-10-13T14:28:58;17.10;;;12.95;;
63534;SDS011;55128;50.230;18.944;2022-10-13T14:33:59;19.48;;;14.70;;
63534;SDS011;55128;50.230;18.944;2022-10-13T14:39:00;20.67;;;14.80;;
63534;SDS011;55128;50.230;18.944;2022-10-13T14:44:00;20.77;;;15.10;;
63534;SDS011;55128;50.230;18.944;2022-10-13T14:49:01;17.60;;;13.38;;
63534;SDS011;55128;50.230;18.944;2022-10-13T14:54:01;17.73;;;13.77;;
63534;SDS011;55128;50.230;18.944;2022-10-13T14:59:04;25.83;;;19.95;;
63534;SDS011;55128;50.230;18.944;2022-10-13T15:04:05;23.30;;;19.08;;
63534;SDS011;55128;50.230;18.944;2022-10-13T15:09:07;24.60;;;20.10;;
63534;SDS011;55128;50.230;18.944;2022-10-13T15:14:09;20.65;;;15.88;;
63534;SDS011;55128;50.230;18.944;2022-10-13T15:19:10;20.95;;;18.08;;
63534;SDS011;55128;50.230;18.944;2022-10-13T15:24:10;41.45;;;32.15;;
63534;SDS011;55128;50.230;18.944;2022-10-13T15:29:11;19.75;;;14.40;;
63534;SDS011;55128;50.230;18.944;2022-10-13T15:34:11;22.05;;;14.23;;
63534;SDS011;55128;50.230;18.944;2022-10-13T15:39:12;17.33;;;13.45;;
63534;SDS011;55128;50.230;18.944;2022-10-13T15:44:13;15.30;;;12.00;;
63534;SDS011;55128;50.230;18.944;2022-10-13T15:49:15;19.67;;;15.20;;
63534;SDS011;55128;50.230;18.944;2022-10-13T15:54:17;19.08;;;14.18;;
63534;SDS011;55128;50.230;18.944;2022-10-13T15:59:19;17.55;;;13.63;;
63534;SDS011;55128;50.230;18.944;2022-10-13T16:04:19;16.60;;;13.32;;
63534;SDS011;55128;50.230;18.944;2022-10-13T16:09:20;22.85;;;16.23;;
63534;SDS011;55128;50.230;18.944;2022-10-13T16:25:37;21.35;;;17.52;;
63534;SDS011;55128;50.230;18.944;2022-10-13T16:30:38;24.92;;;18.13;;
63534;SDS011;55128;50.230;18.944;2022-10-13T16:35:39;23.48;;;15.60;;
63534;SDS011;55128;50.230;18.944;2022-10-13T16:40:41;21.40;;;15.35;;
63534;SDS011;55128;50.230;18.944;2022-10-13T16:45:55;22.02;;;16.90;;
63534;SDS011;55128;50.230;18.944;2022-10-13T16:50:56;34.75;;;23.38;;
63534;SDS011;55128;50.230;18.944;2022-10-13T16:55:57;26.30;;;20.63;;
63534;SDS011;55128;50.230;18.944;2022-10-13T17:01:02;33.83;;;24.02;;
63534;SDS011;55128;50.230;18.944;2022-10-13T17:06:05;37.97;;;26.65;;
63534;SDS011;55128;50.230;18.944;2022-10-13T17:11:06;41.47;;;30.42;;
63534;SDS011;55128;50.230;18.944;2022-10-13T17:16:08;47.67;;;30.88;;
63534;SDS011;55128;50.230;18.944;2022-10-13T17:21:11;39.00;;;28.50;;
63534;SDS011;55128;50.230;18.944;2022-10-13T17:26:15;33.17;;;25.08;;
63534;SDS011;55128;50.230;18.944;2022-10-13T17:31:18;30.58;;;23.35;;
63534;SDS011;55128;50.230;18.944;2022-10-13T17:36:24;33.85;;;22.88;;
63534;SDS011;55128;50.230;18.944;2022-10-13T17:41:26;26.73;;;22.02;;
63534;SDS011;55128;50.230;18.944;2022-10-13T17:46:28;30.10;;;21.70;;
63534;SDS011;55128;50.230;18.944;2022-10-13T17:51:31;28.52;;;21.58;;
63534;SDS011;55128;50.230;18.944;2022-10-13T17:56:32;31.70;;;23.80;;
63534;SDS011;55128;50.230;18.944;2022-10-13T18:01:33;34.88;;;26.02;;
63534;SDS011;55128;50.230;18.944;2022-10-13T18:06:34;33.67;;;23.75;;
63534;SDS011;55128;50.230;18.944;2022-10-13T18:11:39;41.38;;;30.20;;
63534;SDS011;55128;50.230;18.944;2022-10-13T18:16:40;46.97;;;36.08;;
63534;SDS011;55128;50.230;18.944;2022-10-13T18:21:43;41.83;;;32.08;;
63534;SDS011;55128;50.230;18.944;2022-10-13T18:26:44;42.65;;;29.45;;
63534;SDS011;55128;50.230;18.944;2022-10-13T18:31:45;42.75;;;30.33;;
63534;SDS011;55128;50.230;18.944;2022-10-13T18:36:47;42.65;;;30.40;;
63534;SDS011;55128;50.230;18.944;2022-10-13T18:41:51;42.10;;;29.83;;
63534;SDS011;55128;50.230;18.944;2022-10-13T18:46:52;43.78;;;30.23;;
63534;SDS011;55128;50.230;18.944;2022-10-13T18:51:56;41.63;;;28.17;;
63534;SDS011;55128;50.230;18.944;2022-10-13T18:56:58;54.10;;;34.22;;
63534;SDS011;55128;50.230;18.944;2022-10-13T19:01:59;47.20;;;28.40;;
63534;SDS011;55128;50.230;18.944;2022-10-13T19:07:00;42.30;;;29.40;;
63534;SDS011;55128;50.230;18.944;2022-10-13T19:12:00;54.42;;;32.28;;
63534;SDS011;55128;50.230;18.944;2022-10-13T19:17:01;51.40;;;35.13;;
63534;SDS011;55128;50.230;18.944;2022-10-13T19:22:01;68.97;;;39.67;;
63534;SDS011;55128;50.230;18.944;2022-10-13T19:27:02;49.72;;;33.45;;
63534;SDS011;55128;50.230;18.944;2022-10-13T19:32:03;55.83;;;36.58;;
63534;SDS011;55128;50.230;18.944;2022-10-13T19:37:04;46.63;;;28.73;;
63534;SDS011;55128;50.230;18.944;2022-10-13T19:42:06;58.38;;;39.33;;
63534;SDS011;55128;50.230;18.944;2022-10-13T19:47:06;51.05;;;32.45;;
63534;SDS011;55128;50.230;18.944;2022-10-13T19:52:08;47.38;;;32.72;;
63534;SDS011;55128;50.230;18.944;2022-10-13T20:56:43;40.05;;;25.20;;
63534;SDS011;55128;50.230;18.944;2022-10-13T21:01:44;33.78;;;22.55;;
63534;SDS011;55128;50.230;18.944;2022-10-13T21:06:50;32.50;;;23.23;;
63534;SDS011;55128;50.230;18.944;2022-10-13T21:11:54;45.97;;;31.25;;
63534;SDS011;55128;50.230;18.944;2022-10-13T21:17:08;48.35;;;33.08;;
63534;SDS011;55128;50.230;18.944;2022-10-13T21:22:09;40.67;;;27.75;;
63534;SDS011;55128;50.230;18.944;2022-10-13T21:27:10;33.95;;;23.50;;
63534;SDS011;55128;50.230;18.944;2022-10-13T21:32:16;32.35;;;22.30;;
63534;SDS011;55128;50.230;18.944;2022-10-13T21:37:19;30.35;;;21.10;;
63534;SDS011;55128;50.230;18.944;2022-10-13T21:42:47;37.47;;;26.42;;
63534;SDS011;55128;50.230;18.944;2022-10-13T21:47:48;37.90;;;26.00;;
63534;SDS011;55128;50.230;18.944;2022-10-13T21:52:49;55.70;;;38.90;;
63534;SDS011;55128;50.230;18.944;2022-10-13T21:57:52;49.72;;;32.80;;
63534;SDS011;55128;50.230;18.944;2022-10-13T22:02:53;39.88;;;27.23;;
63534;SDS011;55128;50.230;18.944;2022-10-13T22:07:54;36.28;;;25.25;;
63534;SDS011;55128;50.230;18.944;2022-10-13T22:12:58;42.33;;;27.75;;
63534;SDS011;55128;50.230;18.944;2022-10-13T22:18:08;41.25;;;30.45;;
63534;SDS011;55128;50.230;18.944;2022-10-13T22:23:43;41.63;;;28.33;;
63534;SDS011;55128;50.230;18.944;2022-10-13T22:29:24;47.67;;;30.63;;
63534;SDS011;55128;50.230;18.944;2022-10-13T22:34:44;46.13;;;29.45;;
63534;SDS011;55128;50.230;18.944;2022-10-13T22:39:58;44.85;;;28.55;;
63534;SDS011;55128;50.230;18.944;2022-10-13T22:45:05;40.72;;;28.92;;
63534;SDS011;55128;50.230;18.944;2022-10-13T22:50:21;38.25;;;28.88;;
63534;SDS011;55128;50.230;18.944;2022-10-13T23:01:39;45.92;;;31.63;;
63534;SDS011;55128;50.230;18.944;2022-10-13T23:07:29;46.08;;;31.67;;
63534;SDS011;55128;50.230;18.944;2022-10-13T23:13:03;68.60;;;50.78;;
63534;SDS011;55128;50.230;18.944;2022-10-13T23:19:03;48.50;;;32.47;;
63534;SDS011;55128;50.230;18.944;2022-10-13T23:24:10;50.92;;;34.05;;
63534;SDS011;55128;50.230;18.944;2022-10-13T23:29:17;48.50;;;31.77;;
63534;SDS011;55128;50.230;18.944;2022-10-13T23:34:23;45.80;;;32.72;;
63534;SDS011;55128;50.230;18.944;2022-10-13T23:45:35;52.30;;;35.10;;
63534;SDS011;55128;50.230;18.944;2022-10-13T23:51:14;60.17;;;41.38;;
63534;SDS011;55128;50.230;18.944;2022-10-13T23:56:31;47.22;;;32.30;;
